Time;durP1;ratioP1;P1;durP2;ratioP2;P2;SDS_P1;SDS_P2;PMS_P1;PMS_P2;Temp;Humidity;BMP_temperature;BMP_pressure;BME280_temperature;BME280_humidity;BME280_pressure;Samples;Min_cycle;Max_cycle;Signal;HPM_P1;HPM_P2
2023/09/21 00:00:49;;;;;;;5.05;2.22;;;;;;;18.20;68.26;99878.34;5081593;28;20035;-77
2023/09/21 00:03:15;;;;;;;5.07;2.50;;;;;;;18.11;68.79;99882.72;5072925;28;20058;-77
2023/09/21 00:05:40;;;;;;;4.43;2.45;;;;;;;18.13;68.85;99888.72;5078430;28;20016;-77
2023/09/21 00:08:06;;;;;;;3.47;2.35;;;;;;;18.16;68.68;99888.19;5093152;28;20016;-77
2023/09/21 00:10:32;;;;;;;3.95;2.30;;;;;;;18.08;69.21;99886.81;5093453;28;20035;-77
2023/09/21 00:13:01;;;;;;;3.95;2.25;;;;;;;18.06;69.22;99886.25;5078062;28;20541;-77
2023/09/21 00:15:29;;;;;;;3.58;2.20;;;;;;;17.99;69.51;99875.63;5075073;28;20036;-77
2023/09/21 00:17:58;;;;;;;3.25;2.50;;;;;;;17.95;69.74;99871.78;5072159;28;20032;-78
2023/09/21 00:20:28;;;;;;;5.47;2.25;;;;;;;17.89;70.35;99872.84;5073431;28;20032;-78
2023/09/21 00:22:53;;;;;;;5.07;2.40;;;;;;;17.82;70.42;99866.88;5084361;28;20499;-76
2023/09/21 00:25:19;;;;;;;3.53;2.50;;;;;;;17.84;70.27;99870.94;5074585;28;20052;-77
2023/09/21 00:27:45;;;;;;;3.90;2.63;;;;;;;17.80;70.36;99866.31;5084346;28;20017;-77
2023/09/21 00:30:14;;;;;;;5.95;2.67;;;;;;;17.77;70.63;99869.56;5082261;28;20017;-77
2023/09/21 00:32:40;;;;;;;5.00;2.60;;;;;;;17.69;70.87;99851.88;5088216;28;20111;-77
2023/09/21 00:35:09;;;;;;;5.25;2.72;;;;;;;17.72;71.05;99857.59;5071288;28;20059;-77
2023/09/21 00:37:35;;;;;;;4.10;2.65;;;;;;;17.66;71.23;99845.03;5064924;28;20028;-77
2023/09/21 00:40:05;;;;;;;3.70;2.47;;;;;;;17.73;70.87;99848.34;5072184;28;20103;-77
2023/09/21 00:42:31;;;;;;;5.05;2.60;;;;;;;17.70;71.04;99832.53;5053976;28;20507;-77
2023/09/21 00:44:57;;;;;;;5.57;2.60;;;;;;;17.68;71.40;99839.34;5072661;28;20473;-77
2023/09/21 00:47:22;;;;;;;5.35;2.80;;;;;;;17.67;71.54;99833.06;5071635;28;20047;-77
2023/09/21 00:49:47;;;;;;;3.38;2.35;;;;;;;17.60;71.68;99824.38;5042299;28;20048;-77
2023/09/21 00:52:13;;;;;;;3.40;2.60;;;;;;;17.62;71.77;99824.09;5055549;28;20337;-78
2023/09/21 00:54:40;;;;;;;3.85;2.72;;;;;;;17.63;71.76;99814.84;5063218;28;20036;-78
2023/09/21 00:57:07;;;;;;;4.25;2.55;;;;;;;17.67;71.62;99813.22;5069938;28;20028;-78
2023/09/21 00:59:38;;;;;;;5.40;2.72;;;;;;;17.68;71.59;99809.41;5054299;28;20047;-78
2023/09/21 01:02:04;;;;;;;5.50;2.95;;;;;;;17.67;71.71;99811.28;5049906;28;20032;-78
2023/09/21 01:04:29;;;;;;;4.00;2.58;;;;;;;17.63;71.74;99803.94;5065367;28;20023;-78
2023/09/21 01:06:55;;;;;;;4.80;2.72;;;;;;;17.75;71.33;99795.53;5065868;28;20036;-78
2023/09/21 01:09:21;;;;;;;3.67;2.50;;;;;;;17.72;71.36;99803.16;5069132;28;20040;-78
2023/09/21 01:11:46;;;;;;;4.43;2.40;;;;;;;17.79;70.96;99791.19;5053989;28;20037;-78
2023/09/21 01:14:11;;;;;;;4.40;2.38;;;;;;;17.81;71.02;99794.44;5068293;28;20024;-78
2023/09/21 01:16:37;;;;;;;4.65;2.60;;;;;;;17.85;70.72;99785.47;5068559;28;20032;-78
2023/09/21 01:19:03;;;;;;;3.95;2.60;;;;;;;17.93;70.08;99789.53;5061351;28;20067;-78
2023/09/21 01:21:40;;;;;;;5.10;2.45;;;;;;;17.96;70.01;99782.72;5079380;28;20039;-78
2023/09/21 01:24:06;;;;;;;4.25;2.60;;;;;;;17.94;70.32;99777.56;5033375;28;20029;-78
2023/09/21 01:26:32;;;;;;;4.97;2.40;;;;;;;17.99;69.89;99783.06;5047812;28;20052;-78
2023/09/21 01:28:58;;;;;;;5.15;2.75;;;;;;;17.98;69.54;99773.25;5040869;28;20358;-78
2023/09/21 01:31:24;;;;;;;4.28;2.45;;;;;;;17.96;69.54;99775.41;5062723;28;20047;-77
2023/09/21 01:33:49;;;;;;;3.92;2.22;;;;;;;17.95;69.83;99773.75;5065502;28;20041;-78
2023/09/21 01:36:15;;;;;;;3.25;2.28;;;;;;;18.02;69.35;99768.88;5058005;28;20047;-78
2023/09/21 01:38:46;;;;;;;3.28;2.53;;;;;;;18.05;69.24;99763.97;5075228;28;20028;-77
2023/09/21 01:41:13;;;;;;;4.47;2.30;;;;;;;18.03;69.37;99762.34;5073479;28;20041;-78
2023/09/21 01:43:38;;;;;;;3.95;2.22;;;;;;;18.03;69.34;99767.78;5072878;28;20032;-78
2023/09/21 01:46:04;;;;;;;3.72;2.47;;;;;;;17.98;69.42;99758.81;5053321;28;20053;-77
2023/09/21 01:48:30;;;;;;;3.55;2.40;;;;;;;18.02;69.22;99757.16;5073633;28;20052;-78
2023/09/21 01:50:57;;;;;;;4.85;2.60;;;;;;;17.95;69.74;99762.88;5062621;28;20035;-78
2023/09/21 01:53:22;;;;;;;2.97;2.20;;;;;;;17.99;69.37;99760.44;5075873;28;20508;-78
2023/09/21 01:55:50;;;;;;;4.63;2.38;;;;;;;17.95;69.80;99754.69;5072903;28;20496;-78
2023/09/21 01:58:16;;;;;;;3.55;2.40;;;;;;;17.96;69.52;99737.28;5073104;28;20059;-78
2023/09/21 02:00:49;;;;;;;4.13;2.05;;;;;;;17.95;69.55;99745.69;5075674;28;20186;-78
2023/09/21 02:03:28;;;;;;;4.30;2.53;;;;;;;17.98;69.42;99734.28;5085422;28;20115;-78
2023/09/21 02:05:54;;;;;;;3.00;2.00;;;;;;;17.99;69.02;99727.75;5075903;28;20040;-77
2023/09/21 02:08:20;;;;;;;2.85;2.10;;;;;;;18.00;68.82;99737.56;5080624;28;20024;-78
2023/09/21 02:10:49;;;;;;;6.50;2.28;;;;;;;18.02;68.86;99736.19;5075102;28;20418;-78
2023/09/21 02:13:15;;;;;;;4.10;2.25;;;;;;;18.00;69.12;99727.47;5067607;28;20484;-78
2023/09/21 02:15:43;;;;;;;4.25;2.35;;;;;;;18.01;68.96;99723.66;5075300;28;20025;-78
2023/09/21 02:18:09;;;;;;;3.78;2.22;;;;;;;17.93;69.30;99729.66;5081533;28;20062;-76
2023/09/21 02:20:38;;;;;;;5.80;2.40;;;;;;;17.91;69.38;99718.22;5074864;28;20483;-77
2023/09/21 02:23:05;;;;;;;4.30;2.47;;;;;;;17.80;69.81;99711.16;5081862;28;20036;-76
2023/09/21 02:25:35;;;;;;;5.22;2.17;;;;;;;17.80;69.65;99717.41;5093731;28;20037;-75
2023/09/21 02:28:06;;;;;;;4.13;2.20;;;;;;;17.80;69.55;99711.97;5066777;28;20105;-75
2023/09/21 02:30:32;;;;;;;5.88;2.22;;;;;;;17.82;69.18;99714.41;5057157;28;20013;-75
2023/09/21 02:33:00;;;;;;;3.72;2.40;;;;;;;17.81;69.18;99708.16;5072946;28;20491;-76
2023/09/21 02:35:27;;;;;;;3.80;2.28;;;;;;;17.82;69.29;99712.50;5067978;28;20070;-75
2023/09/21 02:37:54;;;;;;;4.00;2.40;;;;;;;17.76;69.60;99705.41;5075274;28;20020;-75
2023/09/21 02:40:20;;;;;;;3.90;2.10;;;;;;;17.71;69.55;99700.00;5068450;28;20025;-75
2023/09/21 02:42:50;;;;;;;4.50;2.28;;;;;;;17.77;69.49;99700.81;5079501;28;20384;-76
2023/09/21 02:45:18;;;;;;;3.00;2.38;;;;;;;17.70;69.67;99695.63;5081983;28;20040;-75
2023/09/21 02:47:43;;;;;;;3.20;2.28;;;;;;;17.64;70.03;99686.66;5073748;28;20487;-76
2023/09/21 02:50:31;;;;;;;3.78;2.30;;;;;;;17.65;69.91;99693.72;5082448;28;20039;-76
2023/09/21 02:53:01;;;;;;;3.40;2.28;;;;;;;17.56;70.15;99684.47;5072645;28;20051;-76
2023/09/21 02:55:27;;;;;;;3.35;2.10;;;;;;;17.58;70.02;99683.09;5073178;28;20422;-76
2023/09/21 02:58:09;;;;;;;4.50;2.47;;;;;;;17.58;70.14;99679.59;5073181;28;20078;-76
2023/09/21 03:00:42;;;;;;;3.63;2.17;;;;;;;17.50;70.25;99669.22;5082236;28;20075;-76
2023/09/21 03:03:15;;;;;;;4.85;2.40;;;;;;;17.49;70.21;99668.44;5089720;28;20043;-76
2023/09/21 03:05:47;;;;;;;2.72;2.20;;;;;;;17.40;70.57;99670.03;5072095;28;20055;-76
2023/09/21 03:08:15;;;;;;;5.50;2.83;;;;;;;17.43;70.46;99664.06;5075437;28;20021;-76
2023/09/21 03:10:45;;;;;;;5.50;2.45;;;;;;;17.49;70.19;99668.44;5080178;28;20031;-76
2023/09/21 03:13:18;;;;;;;4.60;2.10;;;;;;;17.54;69.82;99662.16;5085661;28;20035;-76
2023/09/21 03:15:47;;;;;;;4.13;2.40;;;;;;;17.47;70.41;99662.44;5078173;28;20025;-76
2023/09/21 03:18:13;;;;;;;4.05;2.38;;;;;;;17.50;70.03;99659.19;5073035;28;20044;-76
2023/09/21 03:20:40;;;;;;;4.20;2.30;;;;;;;17.54;69.76;99654.84;5079699;28;20104;-76
2023/09/21 03:23:09;;;;;;;3.55;2.40;;;;;;;17.57;69.49;99653.47;5075505;28;20132;-76
2023/09/21 03:25:43;;;;;;;6.85;2.35;;;;;;;17.58;69.40;99655.09;5066506;28;20036;-75
2023/09/21 03:28:15;;;;;;;3.17;2.20;;;;;;;17.59;69.44;99656.72;5082698;28;20056;-75
2023/09/21 03:30:49;;;;;;;4.82;2.00;;;;;;;17.60;69.18;99652.91;5081894;28;20024;-75
2023/09/21 03:33:20;;;;;;;4.10;2.15;;;;;;;17.56;69.08;99654.53;5093336;28;20036;-75
2023/09/21 03:35:45;;;;;;;4.05;2.33;;;;;;;17.53;69.59;99649.66;5082550;28;20084;-76
2023/09/21 03:38:12;;;;;;;3.45;2.40;;;;;;;17.51;69.20;99649.94;5513634;22;20061;-76
2023/09/21 03:40:37;;;;;;;3.35;2.30;;;;;;;17.43;70.20;99647.75;5020238;28;20054;-76
2023/09/21 03:43:03;;;;;;;4.15;2.00;;;;;;;17.36;70.42;99648.03;5026832;28;20476;-76
2023/09/21 03:45:29;;;;;;;3.65;2.33;;;;;;;17.39;70.11;99641.22;5001660;28;20041;-76
2023/09/21 03:47:54;;;;;;;3.45;2.30;;;;;;;17.42;69.47;99632.50;5015164;28;20029;-76
2023/09/21 03:50:21;;;;;;;4.50;2.63;;;;;;;17.42;69.78;99637.94;5030927;28;20104;-76
2023/09/21 03:52:47;;;;;;;7.53;2.30;;;;;;;17.41;69.74;99637.16;5022485;28;20022;-76
2023/09/21 03:55:16;;;;;;;4.30;2.40;;;;;;;17.38;70.18;99632.25;5015778;28;20034;-75
2023/09/21 03:57:42;;;;;;;4.00;2.20;;;;;;;17.40;70.10;99637.41;5453470;22;20122;-74
2023/09/21 04:00:26;;;;;;;3.35;2.30;;;;;;;17.31;70.47;99626.25;5024514;28;20030;-74
2023/09/21 04:02:52;;;;;;;4.60;2.28;;;;;;;17.30;70.36;99623.81;5026505;28;20030;-75
2023/09/21 04:05:20;;;;;;;4.68;2.60;;;;;;;17.28;70.29;99624.09;5025921;28;20025;-75
2023/09/21 04:07:46;;;;;;;4.20;2.30;;;;;;;17.29;70.37;99620.28;5032517;28;20021;-75
2023/09/21 04:10:12;;;;;;;3.95;2.22;;;;;;;17.32;70.39;99617.00;5017582;28;20537;-74
2023/09/21 04:12:39;;;;;;;5.97;2.30;;;;;;;17.41;70.01;99626.25;5033210;28;20037;-74
2023/09/21 04:15:08;;;;;;;2.72;2.42;;;;;;;17.45;70.07;99639.31;5030828;28;20021;-74
2023/09/21 04:17:35;;;;;;;2.97;2.17;;;;;;;17.43;69.93;99631.41;5015159;28;20042;-74
2023/09/21 04:20:10;;;;;;;3.45;2.20;;;;;;;17.45;70.03;99628.44;5000610;28;20025;-74
2023/09/21 04:22:36;;;;;;;3.50;2.35;;;;;;;17.39;70.40;99633.88;5025063;28;20328;-75
2023/09/21 04:27:39;;;;;;;3.87;2.37;;;;;;;17.33;70.49;99631.44;5197707;22;20393;-75
2023/09/21 04:30:14;;;;;;;3.88;2.67;;;;;;;17.17;71.31;99623.28;5051521;28;20493;-75
2023/09/21 04:32:40;;;;;;;3.07;2.40;;;;;;;17.21;71.29;99632.50;5050345;28;20032;-75
2023/09/21 04:35:05;;;;;;;3.08;2.53;;;;;;;17.27;71.06;99638.78;5045179;28;20037;-74
2023/09/21 04:37:34;;;;;;;5.35;2.58;;;;;;;17.33;70.83;99632.25;5052348;28;20075;-75
2023/09/21 04:40:04;;;;;;;3.33;2.60;;;;;;;17.24;71.08;99626.53;5060852;28;20051;-75
2023/09/21 04:42:30;;;;;;;3.50;2.30;;;;;;;17.20;71.62;99627.34;5072445;28;20080;-76
2023/09/21 04:44:57;;;;;;;4.65;2.60;;;;;;;17.22;71.51;99630.63;5056513;28;20029;-75
2023/09/21 04:47:23;;;;;;;4.15;2.67;;;;;;;17.24;71.34;99626.53;5053806;28;20091;-75
2023/09/21 04:49:49;;;;;;;4.93;2.75;;;;;;;17.21;71.98;99618.09;5052582;28;20112;-75
2023/09/21 04:52:14;;;;;;;3.33;2.53;;;;;;;17.09;72.20;99621.91;5053540;28;20127;-75
2023/09/21 04:54:40;;;;;;;3.65;2.45;;;;;;;17.03;73.06;99617.56;5050525;28;20025;-75
2023/09/21 04:57:05;;;;;;;3.20;2.45;;;;;;;16.97;73.42;99624.06;5052225;28;20381;-75
2023/09/21 04:59:30;;;;;;;3.20;2.72;;;;;;;16.97;73.26;99608.56;5050785;28;20029;-75
2023/09/21 05:01:59;;;;;;;3.13;2.50;;;;;;;17.05;73.22;99614.56;5052389;28;20025;-75
2023/09/21 05:04:26;;;;;;;5.57;2.63;;;;;;;17.03;73.07;99608.59;5050715;28;20025;-75
2023/09/21 05:06:51;;;;;;;3.33;2.50;;;;;;;17.12;72.94;99620.56;5054686;28;20036;-75
2023/09/21 05:09:17;;;;;;;3.17;2.38;;;;;;;17.12;72.96;99610.47;5056440;28;20041;-75
2023/09/21 05:11:43;;;;;;;6.80;2.55;;;;;;;17.07;73.47;99607.78;5056038;28;20473;-75
2023/09/21 05:14:08;;;;;;;4.65;2.60;;;;;;;17.11;72.97;99602.59;5055419;28;20033;-74
2023/09/21 05:16:34;;;;;;;3.08;2.42;;;;;;;17.19;72.74;99612.13;5056501;28;20044;-75
2023/09/21 05:19:00;;;;;;;4.25;2.80;;;;;;;17.13;73.23;99612.09;5056376;28;20029;-74
2023/09/21 05:21:25;;;;;;;4.18;2.58;;;;;;;17.15;73.01;99613.75;5056025;28;20489;-75
2023/09/21 05:23:50;;;;;;;5.00;2.78;;;;;;;17.20;72.64;99613.75;5054672;28;20046;-74
2023/09/21 05:26:19;;;;;;;3.67;2.75;;;;;;;17.17;72.99;99615.13;5057733;28;20120;-74
2023/09/21 05:28:46;;;;;;;4.97;2.80;;;;;;;17.16;73.22;99616.22;5057905;28;20094;-75
2023/09/21 05:31:12;;;;;;;5.47;2.60;;;;;;;17.18;73.21;99619.47;5062165;28;20037;-75
2023/09/21 05:33:38;;;;;;;4.40;2.63;;;;;;;17.18;73.21;99610.47;5052981;28;20148;-75
2023/09/21 05:36:04;;;;;;;4.90;2.42;;;;;;;17.30;73.05;99619.19;5055429;28;20025;-75
2023/09/21 05:38:33;;;;;;;4.47;2.70;;;;;;;17.48;72.36;99619.72;5052816;28;20037;-75
2023/09/21 05:41:02;;;;;;;4.57;2.55;;;;;;;17.56;71.90;99619.19;5048019;28;20040;-74
2023/09/21 05:43:29;;;;;;;3.88;2.95;;;;;;;17.67;71.88;99620.78;5051849;28;20477;-76
2023/09/21 05:45:54;;;;;;;3.35;2.33;;;;;;;17.62;71.82;99623.53;5045128;28;20021;-76
2023/09/21 05:48:20;;;;;;;4.28;2.70;;;;;;;17.69;71.68;99625.97;5049602;28;20048;-76
2023/09/21 05:50:45;;;;;;;5.93;2.45;;;;;;;17.75;72.81;99632.22;5053334;28;20021;-76
2023/09/21 05:53:11;;;;;;;2.88;2.45;;;;;;;17.82;71.75;99616.41;5051696;28;20032;-77
2023/09/21 05:55:37;;;;;;;4.47;2.33;;;;;;;17.88;71.02;99615.28;5052127;28;20194;-77
2023/09/21 05:58:04;;;;;;;3.45;2.42;;;;;;;18.01;70.39;99617.47;5053215;28;20039;-78
2023/09/21 06:00:30;;;;;;;4.38;2.50;;;;;;;18.30;69.96;99622.28;5052683;28;20400;-77
2023/09/21 06:02:59;;;;;;;4.43;2.03;;;;;;;18.96;67.63;99618.66;5050868;28;20037;-77
2023/09/21 06:05:26;;;;;;;3.65;2.60;;;;;;;19.71;64.90;99625.69;5053803;28;20324;-77
2023/09/21 06:07:52;;;;;;;3.08;2.20;;;;;;;20.25;63.17;99628.41;5052379;28;20048;-75
2023/09/21 06:10:24;;;;;;;2.92;2.22;;;;;;;21.01;60.39;99631.19;5051386;28;20587;-75
2023/09/21 06:12:50;;;;;;;2.90;2.60;;;;;;;21.58;58.16;99624.00;5053721;28;20024;-74
2023/09/21 06:15:16;;;;;;;3.78;2.58;;;;;;;22.13;56.31;99634.22;5052146;28;20027;-75
2023/09/21 06:17:42;;;;;;;4.07;2.70;;;;;;;22.14;55.94;99626.81;5049061;28;20040;-74
2023/09/21 06:20:07;;;;;;;2.95;2.30;;;;;;;22.45;54.95;99624.28;5052220;28;20384;-74
2023/09/21 06:22:33;;;;;;;3.63;2.60;;;;;;;22.91;53.38;99622.44;5051985;28;20040;-74
2023/09/21 06:24:59;;;;;;;3.90;2.28;;;;;;;23.40;52.55;99625.41;5051057;28;20041;-74
2023/09/21 06:27:25;;;;;;;5.65;2.20;;;;;;;23.64;51.53;99613.25;5053124;28;20404;-74
2023/09/21 06:29:51;;;;;;;4.78;2.15;;;;;;;23.11;51.88;99614.84;5051793;28;20063;-74
2023/09/21 06:32:18;;;;;;;4.50;2.30;;;;;;;22.17;55.03;99613.31;5050886;28;20110;-74
2023/09/21 06:34:45;;;;;;;3.30;2.35;;;;;;;21.70;57.41;99601.63;5052866;28;20112;-74
2023/09/21 06:37:13;;;;;;;2.90;2.20;;;;;;;21.16;58.91;99602.00;5052387;28;20055;-75
2023/09/21 06:39:39;;;;;;;3.75;2.13;;;;;;;20.67;60.42;99602.13;5051364;28;20025;-74
2023/09/21 06:42:05;;;;;;;5.55;2.20;;;;;;;20.53;61.47;99595.78;5052555;28;20043;-74
2023/09/21 06:44:31;;;;;;;4.15;2.20;;;;;;;20.30;62.59;99599.09;5052370;28;20032;-75
2023/09/21 06:46:56;;;;;;;2.90;2.25;;;;;;;20.04;63.34;99595.84;5050335;28;20043;-75
2023/09/21 06:49:22;;;;;;;3.95;2.30;;;;;;;19.92;63.97;99590.78;5053040;28;20047;-75
2023/09/21 06:51:49;;;;;;;4.88;2.33;;;;;;;19.75;64.21;99585.78;5052570;28;20025;-76
2023/09/21 06:54:17;;;;;;;3.45;2.30;;;;;;;19.56;65.06;99598.53;5051135;28;20116;-75
2023/09/21 06:56:42;;;;;;;3.05;2.33;;;;;;;19.57;65.22;99591.97;5052925;28;20025;-75
2023/09/21 06:59:08;;;;;;;3.55;2.30;;;;;;;19.60;65.42;99585.91;5073822;28;20027;-77
2023/09/21 07:01:34;;;;;;;5.18;2.50;;;;;;;19.69;65.18;99597.84;5058666;28;20033;-74
2023/09/21 07:03:59;;;;;;;5.78;2.53;;;;;;;20.05;63.95;99592.03;5053309;28;20029;-74
2023/09/21 07:06:25;;;;;;;6.20;2.40;;;;;;;20.30;62.83;99582.69;5050850;28;20086;-74
2023/09/21 07:08:50;;;;;;;4.95;2.35;;;;;;;20.88;61.54;99593.66;5043290;28;20063;-74
2023/09/21 07:11:18;;;;;;;3.53;2.30;;;;;;;21.61;59.17;99599.59;5051507;28;20075;-74
2023/09/21 07:13:45;;;;;;;3.88;2.60;;;;;;;21.86;58.34;99597.50;5046775;28;20049;-74
2023/09/21 07:16:10;;;;;;;4.85;2.40;;;;;;;21.85;57.78;99606.00;5047276;28;20175;-74
2023/09/21 07:18:37;;;;;;;3.78;2.38;;;;;;;21.58;58.88;99602.09;5051724;28;20504;-75
2023/09/21 07:21:02;;;;;;;3.00;2.08;;;;;;;21.52;59.24;99604.13;5051031;28;20029;-74
2023/09/21 07:23:28;;;;;;;3.70;2.10;;;;;;;21.48;59.58;99605.81;5051847;28;20531;-75
2023/09/21 07:25:53;;;;;;;4.70;2.38;;;;;;;21.55;58.91;99608.16;5051107;28;20033;-75
2023/09/21 07:28:21;;;;;;;3.13;2.20;;;;;;;22.63;55.94;99619.78;5051479;28;20031;-75
2023/09/21 07:30:49;;;;;;;4.43;2.55;;;;;;;23.63;52.54;99608.91;5050315;28;20021;-75
2023/09/21 07:33:15;;;;;;;3.90;2.00;;;;;;;24.31;51.27;99621.59;5045208;28;20040;-75
2023/09/21 07:35:41;;;;;;;3.50;2.30;;;;;;;24.45;49.73;99615.97;5051578;28;20020;-75
2023/09/21 07:38:06;;;;;;;5.95;2.58;;;;;;;23.52;52.22;99622.09;5051068;28;20032;-75
2023/09/21 07:40:31;;;;;;;4.35;2.30;;;;;;;22.72;54.67;99619.84;5051378;28;20051;-75
2023/09/21 07:42:57;;;;;;;3.78;2.60;;;;;;;22.28;56.71;99608.44;5051201;28;20029;-75
2023/09/21 07:45:24;;;;;;;5.60;2.50;;;;;;;22.23;57.73;99616.75;5050297;28;20033;-75
2023/09/21 07:47:50;;;;;;;3.05;2.35;;;;;;;22.74;55.80;99614.88;5050488;28;20041;-75
2023/09/21 07:50:18;;;;;;;3.60;2.42;;;;;;;22.52;56.78;99607.41;5051696;28;20021;-75
2023/09/21 07:52:46;;;;;;;5.38;2.40;;;;;;;22.27;57.71;99613.09;5051558;28;20028;-75
2023/09/21 07:55:11;;;;;;;4.28;2.25;;;;;;;22.16;58.41;99616.34;5050128;28;20087;-75
2023/09/21 07:57:40;;;;;;;2.90;2.17;;;;;;;21.80;59.14;99615.13;5052197;28;20025;-75
2023/09/21 08:00:09;;;;;;;4.13;2.40;;;;;;;21.44;61.91;99619.31;5050058;28;20071;-75
2023/09/21 08:02:34;;;;;;;3.90;2.60;;;;;;;20.94;64.44;99617.09;5048521;28;20548;-75
2023/09/21 08:05:02;;;;;;;4.65;2.40;;;;;;;20.63;65.34;99612.06;5049723;28;20025;-75
2023/09/21 08:07:27;;;;;;;3.70;2.20;;;;;;;20.28;67.99;99614.97;5049186;28;20086;-75
2023/09/21 08:09:54;;;;;;;6.70;2.97;;;;;;;19.96;70.00;99615.59;5049466;28;20045;-75
2023/09/21 08:12:21;;;;;;;3.00;2.50;;;;;;;19.82;71.82;99610.00;5043824;28;20083;-75
2023/09/21 08:14:47;;;;;;;3.53;2.53;;;;;;;19.74;71.37;99608.72;5051128;28;20036;-75
2023/09/21 08:17:12;;;;;;;4.93;2.60;;;;;;;19.75;70.75;99617.72;5050902;28;20136;-74
2023/09/21 08:19:39;;;;;;;4.68;2.50;;;;;;;19.67;71.36;99606.34;5050691;28;20021;-75
2023/09/21 08:22:04;;;;;;;2.97;2.50;;;;;;;19.57;71.26;99606.44;5050271;28;20131;-75
2023/09/21 08:24:31;;;;;;;4.60;2.60;;;;;;;19.61;72.31;99603.91;5050772;28;20113;-75
2023/09/21 08:26:56;;;;;;;3.95;2.45;;;;;;;19.63;71.17;99610.75;5052039;28;20420;-75
2023/09/21 08:29:22;;;;;;;3.78;2.75;;;;;;;19.57;72.99;99602.91;5041815;28;20056;-76
2023/09/21 08:31:48;;;;;;;5.13;2.60;;;;;;;19.65;72.90;99602.25;5048793;28;20059;-75
2023/09/21 08:34:14;;;;;;;4.78;2.80;;;;;;;19.66;72.62;99610.16;5055509;28;20029;-75
2023/09/21 08:36:44;;;;;;;5.05;2.60;;;;;;;19.65;71.90;99610.44;5052425;28;20255;-76
2023/09/21 08:39:10;;;;;;;3.90;2.60;;;;;;;19.69;72.09;99616.97;5048292;28;20041;-75
2023/09/21 08:41:36;;;;;;;5.50;2.92;;;;;;;19.70;71.66;99618.59;5049618;28;20450;-75
2023/09/21 08:44:02;;;;;;;5.80;2.90;;;;;;;19.76;71.74;99613.88;5050235;28;20029;-75
2023/09/21 08:46:27;;;;;;;3.58;2.55;;;;;;;19.73;73.25;99618.00;5031109;28;20032;-75
2023/09/21 08:48:55;;;;;;;2.65;2.40;;;;;;;19.77;71.12;99610.06;5049305;28;20027;-76
2023/09/21 08:51:21;;;;;;;5.53;2.50;;;;;;;19.91;71.50;99618.41;5027380;28;20037;-76
2023/09/21 08:53:50;;;;;;;5.70;2.55;;;;;;;19.99;70.84;99620.50;5046054;28;20028;-75
2023/09/21 08:56:15;;;;;;;3.95;2.42;;;;;;;20.21;69.78;99622.69;5048944;28;20410;-75
2023/09/21 08:58:41;;;;;;;4.88;2.50;;;;;;;20.14;70.16;99627.72;5047731;28;20041;-76
2023/09/21 09:01:06;;;;;;;4.80;3.00;;;;;;;20.26;69.81;99613.63;5049684;28;20031;-76
2023/09/21 09:03:33;;;;;;;5.50;2.70;;;;;;;20.38;68.36;99627.69;5049146;28;20456;-76
2023/09/21 09:05:59;;;;;;;4.25;2.55;;;;;;;20.34;68.97;99632.09;5040593;28;20020;-75
2023/09/21 09:08:25;;;;;;;4.78;2.53;;;;;;;20.38;68.14;99622.22;5049072;28;20041;-75
2023/09/21 09:10:53;;;;;;;4.57;2.60;;;;;;;20.49;68.31;99641.19;5049778;28;20029;-75
2023/09/21 09:13:19;;;;;;;5.15;2.70;;;;;;;20.49;68.59;99641.19;5050712;28;20519;-75
2023/09/21 09:15:45;;;;;;;4.88;2.75;;;;;;;20.45;67.66;99638.25;5049952;28;20052;-76
2023/09/21 09:18:15;;;;;;;4.55;2.70;;;;;;;20.30;68.37;99647.44;5055363;28;20037;-76
2023/09/21 09:20:42;;;;;;;7.18;2.90;;;;;;;20.23;69.22;99650.53;5053933;28;20032;-76
2023/09/21 09:23:10;;;;;;;4.13;2.90;;;;;;;20.08;69.71;99657.00;5048675;28;20033;-76
2023/09/21 09:25:37;;;;;;;4.55;2.90;;;;;;;19.98;70.20;99633.34;5046836;28;20028;-76
2023/09/21 09:28:04;;;;;;;5.13;2.65;;;;;;;19.89;70.27;99642.47;5048531;28;20079;-76
2023/09/21 09:30:29;;;;;;;4.53;2.67;;;;;;;19.80;71.15;99661.38;5049329;28;20060;-76
2023/09/21 09:32:55;;;;;;;4.47;2.47;;;;;;;19.83;70.71;99660.78;5048935;28;20025;-76
2023/09/21 09:35:21;;;;;;;3.00;2.65;;;;;;;19.84;71.82;99659.69;5047766;28;20025;-75
2023/09/21 09:37:47;;;;;;;5.18;3.00;;;;;;;19.68;72.59;99656.28;5049258;28;20484;-75
2023/09/21 09:40:13;;;;;;;5.45;2.50;;;;;;;19.86;71.80;99660.19;5048896;28;20036;-75
2023/09/21 09:42:43;;;;;;;4.00;2.38;;;;;;;19.97;71.07;99666.41;5053186;28;20028;-75
2023/09/21 09:45:30;;;;;;;3.63;2.20;;;;;;;19.99;71.23;99658.72;5057427;28;20029;-75
2023/09/21 09:47:56;;;;;;;3.78;2.25;;;;;;;20.15;69.99;99657.47;5048400;28;20064;-75
2023/09/21 09:50:25;;;;;;;4.00;2.25;;;;;;;20.16;69.93;99652.81;5059873;28;20016;-76
2023/09/21 09:53:12;;;;;;;3.83;2.03;;;;;;;20.24;68.88;99629.50;5052865;28;20032;-75
2023/09/21 09:55:41;;;;;;;;;;;;;;;20.39;69.05;99645.72;5049756;28;20059;-75
2023/09/21 09:58:08;;;;;;;3.05;2.20;;;;;;;20.80;67.49;99644.38;5046999;28;20389;-75
2023/09/21 10:00:35;;;;;;;2.65;1.88;;;;;;;21.03;66.46;99647.34;5050084;28;20048;-76
2023/09/21 10:03:03;;;;;;;4.75;2.13;;;;;;;21.10;66.20;99649.69;5051793;28;20052;-75
2023/09/21 10:05:28;;;;;;;3.63;1.75;;;;;;;21.22;65.40;99633.63;5052549;28;20497;-75
2023/09/21 10:08:00;;;;;;;5.10;2.20;;;;;;;21.08;66.03;99649.16;5048264;28;20037;-75
2023/09/21 10:10:36;;;;;;;2.65;2.38;;;;;;;20.94;67.35;99654.56;5051275;28;20364;-75
2023/09/21 10:13:01;;;;;;;5.00;2.30;;;;;;;20.95;66.95;99640.63;5048514;28;20017;-76
2023/09/21 10:15:26;;;;;;;4.10;2.08;;;;;;;21.11;67.12;99651.31;5034912;28;20040;-75
2023/09/21 10:17:57;;;;;;;4.45;2.20;;;;;;;21.58;64.85;99624.78;5030472;28;20469;-75
2023/09/21 10:20:25;;;;;;;3.90;2.10;;;;;;;21.70;63.98;99638.03;5053156;28;20060;-75
2023/09/21 10:23:07;;;;;;;4.47;2.47;;;;;;;21.64;64.26;99634.59;5060114;28;20013;-75
2023/09/21 10:25:46;;;;;;;4.53;1.90;;;;;;;21.61;64.94;99629.72;5066626;28;20051;-76
2023/09/21 10:28:29;;;;;;;3.22;2.10;;;;;;;21.53;64.72;99615.88;5061692;28;20048;-75
2023/09/21 10:31:22;;;;;;;4.68;2.15;;;;;;;21.60;65.15;99643.69;5056672;28;20396;-74
2023/09/21 10:33:59;;;;;;;4.30;1.98;;;;;;;21.91;63.98;99633.00;5194032;22;20049;-77
2023/09/21 10:36:29;;;;;;;5.10;2.25;;;;;;;22.47;61.57;99630.25;5066514;28;20048;-74
2023/09/21 10:39:06;;;;;;;2.65;1.88;;;;;;;22.63;60.67;99616.22;5049470;28;20047;-73
2023/09/21 10:41:34;;;;;;;3.65;2.00;;;;;;;22.76;60.52;99612.63;5053319;28;20060;-73
2023/09/21 10:44:02;;;;;;;3.90;1.98;;;;;;;23.36;58.45;99624.41;5053826;28;20021;-73
2023/09/21 10:46:30;;;;;;;2.47;1.88;;;;;;;23.16;58.51;99632.00;5067894;28;20046;-74
2023/09/21 10:49:08;;;;;;;2.70;1.83;;;;;;;23.00;59.78;99619.75;5067993;28;20020;-74
2023/09/21 10:51:34;;;;;;;2.63;2.00;;;;;;;22.88;60.99;99625.00;5070015;28;20089;-73
2023/09/21 10:53:59;;;;;;;3.17;1.95;;;;;;;23.03;61.18;99627.38;5064948;28;20394;-73
2023/09/21 10:56:26;;;;;;;2.05;1.75;;;;;;;22.93;60.20;99616.66;5072284;28;20044;-73
2023/09/21 10:58:51;;;;;;;2.95;1.70;;;;;;;22.69;61.27;99625.97;5066732;28;20056;-75
2023/09/21 11:01:18;;;;;;;3.83;1.90;;;;;;;22.53;61.60;99612.59;5066541;28;20475;-76
2023/09/21 11:03:46;;;;;;;7.15;1.90;;;;;;;22.32;61.92;99625.06;5057514;28;20052;-73
2023/09/21 11:06:11;;;;;;;2.63;1.70;;;;;;;21.95;62.79;99617.56;5052913;28;20040;-76
2023/09/21 11:08:38;;;;;;;3.63;2.13;;;;;;;21.87;63.75;99606.50;5070005;28;20090;-76
2023/09/21 11:11:05;;;;;;;2.50;1.80;;;;;;;21.62;64.16;99597.69;5053633;28;20032;-75
2023/09/21 11:13:30;;;;;;;2.60;1.90;;;;;;;21.47;64.60;99609.69;5065732;28;20047;-76
2023/09/21 11:15:56;;;;;;;3.80;1.80;;;;;;;21.23;65.38;99616.09;5059851;28;20033;-73
2023/09/21 11:18:21;;;;;;;3.78;2.08;;;;;;;21.30;65.27;99612.97;5052607;28;20485;-74
2023/09/21 11:20:49;;;;;;;3.40;1.85;;;;;;;21.28;66.41;99613.28;5050550;28;20040;-74
2023/09/21 11:23:16;;;;;;;2.58;1.70;;;;;;;21.61;64.81;99610.53;5062372;28;20484;-74
2023/09/21 11:25:42;;;;;;;2.47;1.70;;;;;;;21.82;65.00;99607.44;5054587;28;20025;-75
2023/09/21 11:28:08;;;;;;;2.47;1.92;;;;;;;22.55;62.30;99604.88;5052016;28;20052;-74
2023/09/21 11:30:34;;;;;;;4.90;1.80;;;;;;;22.95;60.84;99603.41;5058346;28;20033;-74
2023/09/21 11:35:44;;;;;;;3.17;1.80;;;;;;;23.97;58.65;99603.88;5448603;22;20045;-72
2023/09/21 11:38:12;;;;;;;3.83;1.85;;;;;;;23.57;58.35;99605.44;5027054;28;20103;-74
2023/09/21 11:40:37;;;;;;;3.50;2.10;;;;;;;23.36;58.39;99596.13;5010594;28;20037;-72